createdAt,value
2022-09-12T00:03:05.077Z,0
2022-09-12T00:06:30.260Z,0
2022-09-12T00:09:55.452Z,0
2022-09-12T00:13:20.660Z,0
2022-09-12T00:16:45.867Z,0
2022-09-12T00:20:10.987Z,0
2022-09-12T00:23:36.160Z,0
2022-09-12T00:27:01.346Z,0
2022-09-12T00:30:26.547Z,0
2022-09-12T00:33:51.695Z,0
2022-09-12T00:37:16.880Z,0
2022-09-12T00:40:42.042Z,0
2022-09-12T00:44:07.206Z,0
2022-09-12T00:47:32.425Z,0
2022-09-12T00:50:57.602Z,0
2022-09-12T00:54:22.760Z,0
2022-09-12T00:57:47.928Z,0
2022-09-12T01:01:13.205Z,0
2022-09-12T01:04:38.303Z,0
2022-09-12T01:08:04.054Z,0
2022-09-12T01:11:29.246Z,0
2022-09-12T01:14:54.428Z,0
2022-09-12T01:18:19.581Z,0
2022-09-12T01:21:44.806Z,0
2022-09-12T01:25:09.958Z,0
2022-09-12T01:28:35.181Z,0
2022-09-12T01:32:00.368Z,0
2022-09-12T01:35:25.529Z,0
2022-09-12T01:38:50.724Z,0
2022-09-12T01:42:15.879Z,0
2022-09-12T01:45:41.109Z,0
2022-09-12T01:49:06.265Z,0
2022-09-12T01:52:31.434Z,0
2022-09-12T01:55:56.644Z,0
2022-09-12T01:59:21.781Z,0
2022-09-12T02:02:46.974Z,0
2022-09-12T02:06:12.134Z,0
2022-09-12T02:09:37.336Z,0
2022-09-12T02:13:02.514Z,0
2022-09-12T02:16:27.661Z,0
2022-09-12T02:19:52.835Z,0
2022-09-12T02:23:17.993Z,0
2022-09-12T02:26:43.169Z,0
2022-09-12T02:30:08.392Z,0
2022-09-12T02:33:33.536Z,0
2022-09-12T02:36:58.722Z,0
2022-09-12T02:40:23.903Z,0
2022-09-12T02:43:49.107Z,0
2022-09-12T02:47:14.301Z,0
2022-09-12T02:50:39.445Z,0
2022-09-12T02:54:04.612Z,0
2022-09-12T02:57:29.785Z,0
2022-09-12T03:00:55.010Z,0
2022-09-12T03:04:20.170Z,0
2022-09-12T03:07:45.319Z,0
2022-09-12T03:11:10.497Z,0
2022-09-12T03:14:35.676Z,0
2022-09-12T03:18:00.843Z,0
2022-09-12T03:21:26.058Z,0
2022-09-12T03:24:51.191Z,0
2022-09-12T03:28:16.393Z,0
2022-09-12T03:31:41.611Z,0
2022-09-12T03:35:06.793Z,0
2022-09-12T03:38:31.966Z,0
2022-09-12T03:41:57.133Z,0
2022-09-12T03:45:22.324Z,0
2022-09-12T03:48:47.539Z,0
2022-09-12T03:52:12.713Z,0
2022-09-12T03:55:37.928Z,0
2022-09-12T03:59:03.062Z,0
2022-09-12T04:02:28.253Z,0
2022-09-12T04:05:53.426Z,0
2022-09-12T04:09:18.625Z,0
2022-09-12T04:12:43.822Z,0
2022-09-12T04:16:09.033Z,0
2022-09-12T04:19:34.171Z,0
2022-09-12T04:22:59.312Z,0
2022-09-12T04:26:24.501Z,0
2022-09-12T04:29:49.693Z,0
2022-09-12T04:33:14.839Z,0
2022-09-12T04:36:39.998Z,0
2022-09-12T04:40:05.324Z,0
2022-09-12T04:43:30.400Z,0
2022-09-12T04:46:55.593Z,0
2022-09-12T04:50:20.765Z,0
2022-09-12T04:53:46.019Z,0
2022-09-12T04:57:11.203Z,0
2022-09-12T05:00:36.388Z,0
2022-09-12T05:04:01.614Z,0
2022-09-12T05:07:26.793Z,0
2022-09-12T05:10:52.000Z,0
2022-09-12T05:14:17.213Z,0
2022-09-12T05:17:42.451Z,0
2022-09-12T05:21:07.630Z,0
2022-09-12T05:24:32.852Z,0
2022-09-12T05:27:58.040Z,0
2022-09-12T05:31:23.235Z,0
2022-09-12T05:34:48.391Z,0
2022-09-12T05:38:13.578Z,0
2022-09-12T05:41:38.738Z,0
2022-09-12T05:45:03.933Z,0
2022-09-12T05:48:29.149Z,0
2022-09-12T05:51:54.417Z,6
2022-09-12T05:55:19.618Z,6
2022-09-12T05:58:44.790Z,6
2022-09-12T06:02:10.051Z,6
2022-09-12T06:05:35.137Z,6
2022-09-12T06:09:00.312Z,6
2022-09-12T06:12:25.519Z,6
2022-09-12T06:15:50.659Z,6
2022-09-12T06:19:15.847Z,6
2022-09-12T06:22:41.059Z,6
2022-09-12T06:26:06.230Z,6
2022-09-12T06:29:31.445Z,6
2022-09-12T06:32:56.641Z,6
2022-09-12T06:36:21.798Z,6
2022-09-12T06:39:47.137Z,6
2022-09-12T06:43:12.154Z,6
2022-09-12T06:46:37.403Z,6
2022-09-12T06:50:02.556Z,6
2022-09-12T06:53:27.745Z,6
2022-09-12T06:56:52.941Z,6
2022-09-12T07:00:18.122Z,6
2022-09-12T07:03:43.390Z,6
2022-09-12T07:07:08.525Z,11
2022-09-12T07:10:33.703Z,11
2022-09-12T07:13:58.922Z,11
2022-09-12T07:17:24.160Z,11
2022-09-12T07:20:49.378Z,11
2022-09-12T07:24:14.563Z,11
2022-09-12T07:27:39.733Z,11
2022-09-12T07:31:04.961Z,11
2022-09-12T07:34:30.118Z,11
2022-09-12T07:37:55.381Z,11
2022-09-12T07:41:20.530Z,11
2022-09-12T07:44:45.700Z,17
2022-09-12T07:48:10.933Z,17
2022-09-12T07:51:36.121Z,17
2022-09-12T07:55:01.301Z,17
2022-09-12T07:58:26.468Z,17
2022-09-12T08:01:51.683Z,17
2022-09-12T08:05:16.942Z,17
2022-09-12T08:08:42.127Z,17
2022-09-12T08:12:07.369Z,17
2022-09-12T08:15:32.597Z,17
2022-09-12T08:18:57.716Z,17
2022-09-12T08:22:22.896Z,17
2022-09-12T08:25:48.097Z,11
2022-09-12T08:29:13.290Z,17
2022-09-12T08:32:38.487Z,17
2022-09-12T08:36:03.711Z,11
2022-09-12T08:39:28.912Z,11
2022-09-12T08:42:54.084Z,11
2022-09-12T08:46:19.349Z,11
2022-09-12T08:49:44.450Z,11
2022-09-12T08:53:09.721Z,11
2022-09-12T08:56:34.969Z,11
2022-09-12T09:00:00.174Z,11
2022-09-12T09:03:25.456Z,11
2022-09-12T09:06:50.590Z,11
2022-09-12T09:10:15.779Z,11
2022-09-12T09:13:41.008Z,11
2022-09-12T09:17:06.228Z,17
2022-09-12T09:20:31.420Z,17
2022-09-12T09:23:56.630Z,17
2022-09-12T09:27:39.702Z,23
2022-09-12T09:30:47.212Z,23
2022-09-12T09:34:12.392Z,28
2022-09-12T09:37:37.620Z,28
2022-09-12T09:41:02.880Z,28
2022-09-12T09:44:28.107Z,34
2022-09-12T09:47:53.284Z,34
2022-09-12T09:51:19.142Z,39
2022-09-12T09:54:44.401Z,28
2022-09-12T09:58:09.613Z,28
2022-09-12T10:01:34.873Z,45
2022-09-12T10:05:00.132Z,28
2022-09-12T10:08:25.333Z,23
2022-09-12T10:11:50.616Z,23
2022-09-12T10:15:15.839Z,23
2022-09-12T10:18:41.077Z,28
2022-09-12T10:22:06.280Z,28
2022-09-12T10:25:31.504Z,45
2022-09-12T10:28:56.799Z,51
2022-09-12T10:32:21.947Z,56
2022-09-12T10:35:47.188Z,56
2022-09-12T10:39:12.379Z,56
2022-09-12T10:42:37.534Z,23
2022-09-12T10:46:02.826Z,23
2022-09-12T10:49:27.943Z,62
2022-09-12T10:52:53.106Z,73
2022-09-12T10:56:18.286Z,23
2022-09-12T10:59:44.022Z,23
2022-09-12T11:03:09.271Z,28
2022-09-12T11:06:34.417Z,23
2022-09-12T11:09:59.632Z,17
2022-09-12T11:13:24.794Z,28
2022-09-12T11:16:49.974Z,62
2022-09-12T11:20:15.214Z,28
2022-09-12T11:23:40.365Z,23
2022-09-12T11:27:05.579Z,23
2022-09-12T11:30:30.832Z,17
2022-09-12T11:33:56.849Z,17
2022-09-12T11:37:21.189Z,17
2022-09-12T11:40:46.384Z,23
2022-09-12T11:44:11.540Z,23
2022-09-12T11:47:36.717Z,23
2022-09-12T11:51:01.899Z,62
2022-09-12T11:54:27.102Z,56
2022-09-12T11:57:52.265Z,56
2022-09-12T12:01:17.422Z,56
2022-09-12T12:04:42.619Z,34
2022-09-12T12:08:07.803Z,28
2022-09-12T12:11:32.976Z,28
2022-09-12T12:14:58.148Z,28
2022-09-12T12:18:23.347Z,34
2022-09-12T12:21:48.564Z,34
2022-09-12T12:25:15.472Z,34
2022-09-12T12:28:38.985Z,34
2022-09-12T12:32:04.185Z,34
2022-09-12T12:35:29.360Z,34
2022-09-12T12:38:54.550Z,28
2022-09-12T12:42:22.272Z,39
2022-09-12T12:45:44.922Z,45
2022-09-12T12:49:10.080Z,39
2022-09-12T12:52:35.261Z,45
2022-09-12T12:56:00.423Z,39
2022-09-12T12:59:25.647Z,45
2022-09-12T13:02:50.980Z,39
2022-09-12T13:06:16.109Z,45
2022-09-12T13:09:41.318Z,45
2022-09-12T13:13:06.477Z,39
2022-09-12T13:16:31.664Z,39
2022-09-12T13:20:17.160Z,34
2022-09-12T13:23:22.018Z,28
2022-09-12T13:26:47.196Z,28
2022-09-12T13:30:12.366Z,34
2022-09-12T13:33:37.573Z,28
2022-09-12T13:37:02.972Z,28
2022-09-12T13:40:28.066Z,34
2022-09-12T13:43:53.267Z,28
2022-09-12T13:47:18.415Z,34
2022-09-12T13:50:43.607Z,39
2022-09-12T13:54:08.797Z,39
2022-09-12T13:57:33.953Z,39
2022-09-12T14:00:59.174Z,39
2022-09-12T14:04:24.374Z,39
2022-09-12T14:07:49.621Z,39
2022-09-12T14:11:14.891Z,34
2022-09-12T14:14:40.055Z,34
2022-09-12T14:18:05.215Z,34
2022-09-12T14:21:30.407Z,34
2022-09-12T14:24:55.578Z,34
2022-09-12T14:28:23.493Z,28
2022-09-12T15:05:36.767Z,6
2022-09-12T15:09:01.917Z,23
2022-09-12T15:12:27.090Z,23
2022-09-12T15:15:52.329Z,23
2022-09-12T15:19:17.449Z,17
2022-09-12T15:22:43.506Z,17
2022-09-12T15:26:08.663Z,17
2022-09-12T15:29:34.535Z,17
2022-09-12T15:32:59.740Z,17
2022-09-12T15:36:24.972Z,17
2022-09-12T15:39:50.250Z,17
2022-09-12T15:43:15.430Z,11
2022-09-12T15:46:40.682Z,17
2022-09-12T15:50:05.853Z,17
2022-09-12T15:53:31.113Z,17
2022-09-12T15:56:56.441Z,17
2022-09-12T16:00:21.509Z,23
2022-09-12T16:03:46.838Z,23
2022-09-12T16:07:11.947Z,28
2022-09-12T16:10:37.163Z,23
2022-09-12T16:14:02.375Z,23
2022-09-12T16:17:27.566Z,23
2022-09-12T16:20:52.802Z,23
2022-09-12T16:24:17.981Z,17
2022-09-12T16:27:43.169Z,17
2022-09-12T16:31:08.556Z,17
2022-09-12T16:34:33.592Z,11
2022-09-12T16:37:58.791Z,11
2022-09-12T16:41:24.412Z,6
2022-09-12T16:44:49.214Z,6
2022-09-12T16:48:14.473Z,6
2022-09-12T16:51:39.689Z,6
2022-09-12T16:55:04.908Z,0
2022-09-12T16:58:30.102Z,0
2022-09-12T17:01:55.306Z,0
2022-09-12T17:05:20.627Z,0
2022-09-12T17:08:45.995Z,0
2022-09-12T17:12:11.153Z,0
2022-09-12T17:15:36.434Z,0
2022-09-12T17:19:01.634Z,0
2022-09-12T17:22:26.858Z,0
2022-09-12T17:25:52.053Z,0
2022-09-12T17:29:17.256Z,0
2022-09-12T17:32:42.433Z,0
2022-09-12T17:36:07.744Z,0
2022-09-12T17:39:33.066Z,0
2022-09-12T17:42:58.141Z,0
2022-09-12T17:46:23.479Z,0
2022-09-12T17:49:48.756Z,0
2022-09-12T17:53:14.043Z,0
2022-09-12T17:56:39.271Z,0
2022-09-12T18:00:04.406Z,0
2022-09-12T18:03:29.616Z,0
2022-09-12T18:06:57.828Z,0
2022-09-12T18:10:23.058Z,0
2022-09-12T18:13:48.462Z,0
2022-09-12T18:17:13.505Z,0
2022-09-12T18:20:38.715Z,0
2022-09-12T18:24:03.948Z,0
2022-09-12T18:27:29.192Z,0
2022-09-12T18:30:54.466Z,0
2022-09-12T18:34:19.627Z,0
2022-09-12T18:37:44.851Z,0
2022-09-12T18:41:10.072Z,0
2022-09-12T18:44:35.279Z,0
2022-09-12T18:48:00.479Z,0
2022-09-12T18:51:25.624Z,0
2022-09-12T18:54:50.810Z,0
2022-09-12T18:58:16.004Z,0
2022-09-12T19:01:41.285Z,0
2022-09-12T19:05:06.473Z,0
2022-09-12T19:08:31.633Z,0
2022-09-12T19:11:56.830Z,0
2022-09-12T19:15:22.035Z,0
2022-09-12T19:18:47.222Z,0
2022-09-12T19:22:12.480Z,0
2022-09-12T19:25:37.649Z,0
2022-09-12T19:29:02.887Z,0
2022-09-12T19:32:28.017Z,0
2022-09-12T19:35:53.233Z,0
2022-09-12T19:39:18.549Z,0
2022-09-12T19:42:43.644Z,0
2022-09-12T19:46:08.890Z,0
2022-09-12T19:49:34.152Z,0
2022-09-12T19:52:59.404Z,0
2022-09-12T19:56:24.675Z,0
2022-09-12T19:59:49.904Z,0
2022-09-12T20:03:15.156Z,0
2022-09-12T20:06:40.404Z,0
2022-09-12T20:10:05.619Z,0
2022-09-12T20:13:30.967Z,0
2022-09-12T20:16:56.083Z,0
2022-09-12T20:20:21.313Z,0
2022-09-12T20:23:46.554Z,0
2022-09-12T20:27:11.814Z,0
2022-09-12T20:30:37.058Z,0
2022-09-12T20:34:02.267Z,0
2022-09-12T20:37:27.521Z,0
2022-09-12T20:40:52.759Z,0
2022-09-12T20:44:18.005Z,0
2022-09-12T20:47:43.292Z,0
2022-09-12T20:51:08.510Z,0
2022-09-12T20:54:33.745Z,0
2022-09-12T20:57:59.003Z,0
2022-09-12T21:01:24.259Z,0
2022-09-12T21:04:49.496Z,0
2022-09-12T21:08:14.723Z,0
2022-09-12T21:11:39.953Z,0
2022-09-12T21:15:05.190Z,0
2022-09-12T21:18:30.431Z,0
2022-09-12T21:21:55.693Z,0
2022-09-12T21:25:20.897Z,0
2022-09-12T21:28:46.119Z,0
2022-09-12T21:32:14.124Z,0
2022-09-12T21:35:36.615Z,0
2022-09-12T21:39:01.963Z,0
2022-09-12T21:42:27.082Z,0
2022-09-12T21:45:52.318Z,0
2022-09-12T21:49:17.532Z,0
2022-09-12T21:52:42.772Z,0
2022-09-12T21:56:08.020Z,0
2022-09-12T21:59:33.229Z,0
2022-09-12T22:02:58.459Z,0
2022-09-12T22:06:23.698Z,0
2022-09-12T22:09:48.907Z,0
2022-09-12T22:13:14.161Z,0
2022-09-12T22:16:39.373Z,0
2022-09-12T22:20:04.607Z,0
2022-09-12T22:23:29.829Z,0
2022-09-12T22:26:55.068Z,0
2022-09-12T22:30:20.391Z,0
2022-09-12T22:33:45.461Z,0
2022-09-12T22:37:10.707Z,0
2022-09-12T22:40:35.930Z,0
2022-09-12T22:44:01.137Z,0
2022-09-12T22:47:26.410Z,0
2022-09-12T22:50:51.592Z,0
2022-09-12T22:54:16.830Z,0
2022-09-12T22:57:42.025Z,0
2022-09-12T23:01:07.342Z,0
2022-09-12T23:04:32.512Z,0
2022-09-12T23:07:57.689Z,0
2022-09-12T23:11:22.905Z,0
2022-09-12T23:14:48.121Z,0
2022-09-12T23:18:13.349Z,0
2022-09-12T23:21:38.611Z,0
2022-09-12T23:25:03.798Z,0
2022-09-12T23:28:29.023Z,0
2022-09-12T23:31:54.331Z,0
2022-09-12T23:35:19.514Z,0
2022-09-12T23:38:44.742Z,0
2022-09-12T23:42:09.900Z,0
2022-09-12T23:45:35.109Z,0
2022-09-12T23:49:00.295Z,0
2022-09-12T23:52:25.486Z,0
2022-09-12T23:55:50.896Z,0
2022-09-12T23:59:15.972Z,0
